createdAt,value
2023-05-20T00:01:02.224Z,9.63
2023-05-20T00:05:55.776Z,11.85
2023-05-20T00:10:52.834Z,9.82
2023-05-20T00:15:47.701Z,9.23
2023-05-20T00:20:41.919Z,12.35
2023-05-20T00:25:35.191Z,11.60
2023-05-20T00:30:29.665Z,12.30
2023-05-20T00:35:23.245Z,11.02
2023-05-20T00:40:17.292Z,8.98
2023-05-20T00:45:11.529Z,9.10
2023-05-20T00:50:08.069Z,10.90
2023-05-20T00:55:02.058Z,15.30
2023-05-20T00:59:55.121Z,12.65
2023-05-20T01:04:49.113Z,7.47
2023-05-20T01:09:43.575Z,9.18
2023-05-20T01:14:59.879Z,13.90
2023-05-20T01:19:54.579Z,11.57
2023-05-20T01:24:54.186Z,11.70
2023-05-20T01:29:51.749Z,11.73
2023-05-20T01:39:44.561Z,9.73
2023-05-20T01:44:39.729Z,10.98
2023-05-20T01:49:33.827Z,16.58
2023-05-20T01:54:28.352Z,12.20
2023-05-20T01:59:26.947Z,13.23
2023-05-20T02:04:23.778Z,10.05
2023-05-20T02:09:18.619Z,9.57
2023-05-20T02:14:11.620Z,9.70
2023-05-20T02:19:04.915Z,10.43
2023-05-20T02:23:58.127Z,12.63
2023-05-20T02:28:52.788Z,14.20
2023-05-20T02:33:48.443Z,10.82
2023-05-20T02:38:42.533Z,14.60
2023-05-20T02:43:36.948Z,12.13
2023-05-20T02:48:29.945Z,13.98
2023-05-20T02:53:23.519Z,10.80
2023-05-20T02:58:16.671Z,9.90
2023-05-20T03:03:13.734Z,10.02
2023-05-20T03:08:29.226Z,9.63
2023-05-20T03:13:22.894Z,8.73
2023-05-20T03:18:17.914Z,8.75
2023-05-20T03:23:11.687Z,11.95
2023-05-20T03:28:06.440Z,9.20
2023-05-20T03:33:03.587Z,9.13
2023-05-20T03:37:57.800Z,8.95
2023-05-20T03:42:52.902Z,13.27
2023-05-20T03:47:48.148Z,9.30
2023-05-20T03:52:43.377Z,12.00
2023-05-20T03:57:38.423Z,9.95
2023-05-20T04:02:31.780Z,13.40
2023-05-20T04:07:24.770Z,11.25
2023-05-20T04:12:19.921Z,11.15
2023-05-20T04:17:12.829Z,10.82
2023-05-20T04:22:06.888Z,12.30
2023-05-20T04:26:59.163Z,7.75
2023-05-20T04:31:54.551Z,9.82
2023-05-20T04:36:48.010Z,10.73
2023-05-20T04:41:41.336Z,11.15
2023-05-20T04:46:34.569Z,9.60
2023-05-20T04:51:28.296Z,9.15
2023-05-20T04:56:21.366Z,16.95
2023-05-20T05:01:15.724Z,7.93
2023-05-20T05:06:08.687Z,10.30
2023-05-20T05:11:02.144Z,12.77
2023-05-20T05:16:01.667Z,9.63
2023-05-20T05:21:03.916Z,12.45
2023-05-20T05:25:58.059Z,8.85
2023-05-20T05:30:51.589Z,9.80
2023-05-20T05:35:45.195Z,14.80
2023-05-20T05:40:38.787Z,12.48
2023-05-20T05:45:33.493Z,10.15
2023-05-20T05:50:26.958Z,16.55
2023-05-20T05:55:20.492Z,13.07
2023-05-20T06:00:15.148Z,13.07
2023-05-20T06:05:15.027Z,9.70
2023-05-20T06:10:09.593Z,12.60
2023-05-20T06:15:03.444Z,10.98
2023-05-20T06:19:57.116Z,12.60
2023-05-20T06:24:50.380Z,12.35
2023-05-20T06:29:44.888Z,16.42
2023-05-20T06:34:39.157Z,13.77
2023-05-20T06:39:32.764Z,16.17
2023-05-20T06:44:27.119Z,16.27
2023-05-20T06:49:40.139Z,18.60
2023-05-20T06:54:36.461Z,13.32
2023-05-20T06:59:30.291Z,14.10
2023-05-20T07:04:22.966Z,15.73
2023-05-20T07:09:16.137Z,13.20
2023-05-20T07:14:09.980Z,14.18
2023-05-20T07:19:03.384Z,16.05
2023-05-20T07:23:57.902Z,15.05
2023-05-20T07:28:52.115Z,15.75
2023-05-20T07:33:45.430Z,23.17
2023-05-20T07:38:40.993Z,14.68
2023-05-20T07:43:35.960Z,16.85
2023-05-20T07:48:29.441Z,16.40
2023-05-20T07:53:23.769Z,13.43
2023-05-20T07:58:16.907Z,16.42
2023-05-20T08:03:10.941Z,15.90
2023-05-20T08:08:29.606Z,16.08
2023-05-20T08:13:28.834Z,13.52
2023-05-20T08:18:22.153Z,15.00
2023-05-20T08:23:15.626Z,12.48
2023-05-20T08:28:09.849Z,15.35
2023-05-20T08:33:05.147Z,14.75
2023-05-20T08:37:58.638Z,15.45
2023-05-20T08:42:53.771Z,14.05
2023-05-20T08:47:49.229Z,14.73
2023-05-20T08:52:45.756Z,14.85
2023-05-20T08:57:40.784Z,15.95
2023-05-20T09:02:33.519Z,15.00
2023-05-20T09:07:30.900Z,17.48
2023-05-20T09:12:24.657Z,12.90
2023-05-20T09:17:20.616Z,14.98
2023-05-20T09:22:14.282Z,12.05
2023-05-20T09:27:08.004Z,11.65
2023-05-20T09:32:04.364Z,12.85
2023-05-20T09:37:00.031Z,12.35
2023-05-20T09:42:24.312Z,13.35
2023-05-20T09:47:18.551Z,17.83
2023-05-20T09:52:12.653Z,14.68
2023-05-20T09:57:06.333Z,16.13
2023-05-20T10:01:59.488Z,17.45
2023-05-20T10:07:33.984Z,18.30
2023-05-20T10:12:54.404Z,18.30
2023-05-20T10:17:59.286Z,17.58
2023-05-20T10:22:59.653Z,16.92
2023-05-20T10:27:53.800Z,19.58
2023-05-20T10:33:01.094Z,19.10
2023-05-20T10:37:56.261Z,17.90
2023-05-20T10:42:50.182Z,16.40
2023-05-20T10:47:59.110Z,16.80
2023-05-20T10:52:51.524Z,18.60
2023-05-20T10:57:44.085Z,16.80
2023-05-20T11:02:37.510Z,17.40
2023-05-20T11:07:32.003Z,19.02
2023-05-20T11:12:26.925Z,16.77
2023-05-20T11:17:20.948Z,14.32
2023-05-20T11:22:15.004Z,13.88
2023-05-20T11:27:08.392Z,16.15
2023-05-20T11:32:02.271Z,14.85
2023-05-20T11:36:59.985Z,14.38
2023-05-20T11:41:53.119Z,16.07
2023-05-20T11:46:49.529Z,15.15
2023-05-20T11:51:42.325Z,15.40
2023-05-20T11:56:39.236Z,16.38
2023-05-20T12:01:43.896Z,16.75
2023-05-20T12:06:40.660Z,15.73
2023-05-20T12:11:38.881Z,20.15
2023-05-20T12:16:33.206Z,17.77
2023-05-20T12:21:27.799Z,15.52
2023-05-20T12:26:20.418Z,18.63
2023-05-20T12:31:14.132Z,16.85
2023-05-20T12:36:07.771Z,21.90
2023-05-20T12:41:02.823Z,16.90
2023-05-20T12:45:56.953Z,18.75
2023-05-20T12:50:51.251Z,18.48
2023-05-20T12:55:45.008Z,18.50
2023-05-20T13:00:38.044Z,19.10
2023-05-20T13:05:32.344Z,16.77
2023-05-20T13:10:26.931Z,24.88
2023-05-20T13:15:21.048Z,18.60
2023-05-20T13:20:14.170Z,18.38
2023-05-20T13:25:07.771Z,17.13
2023-05-20T13:30:02.681Z,19.20
2023-05-20T13:34:57.167Z,21.02
2023-05-20T13:39:52.485Z,18.48
2023-05-20T13:44:46.147Z,20.02
2023-05-20T13:49:40.164Z,32.58
2023-05-20T13:54:33.944Z,20.92
2023-05-20T13:59:28.071Z,20.08
2023-05-20T14:04:21.175Z,22.20
2023-05-20T14:09:14.396Z,17.67
2023-05-20T14:14:08.121Z,28.15
2023-05-20T14:19:02.413Z,19.65
2023-05-20T14:23:56.662Z,19.88
2023-05-20T14:28:50.173Z,17.92
2023-05-20T14:33:43.572Z,20.88
2023-05-20T14:38:36.225Z,21.73
2023-05-20T14:43:29.459Z,19.48
2023-05-20T14:48:23.361Z,20.73
2023-05-20T14:53:18.371Z,18.90
2023-05-20T14:58:11.918Z,19.17
2023-05-20T15:03:06.131Z,20.05
2023-05-20T15:07:59.549Z,19.75
2023-05-20T15:12:54.091Z,23.05
2023-05-20T15:17:48.422Z,23.50
2023-05-20T15:22:42.307Z,25.38
2023-05-20T15:27:36.135Z,24.55
2023-05-20T15:32:35.352Z,25.42
2023-05-20T15:37:36.052Z,20.95
2023-05-20T15:42:29.984Z,24.05
2023-05-20T15:47:24.089Z,19.77
2023-05-20T15:52:18.620Z,21.40
2023-05-20T15:57:12.086Z,21.27
2023-05-20T16:02:06.515Z,21.13
2023-05-20T16:06:59.282Z,31.05
2023-05-20T16:11:52.441Z,21.88
2023-05-20T16:16:46.423Z,24.58
2023-05-20T16:21:40.618Z,22.25
2023-05-20T16:26:33.284Z,30.58
2023-05-20T16:31:27.121Z,25.00
2023-05-20T16:36:23.164Z,24.27
2023-05-20T16:41:16.788Z,25.42
2023-05-20T16:46:10.474Z,27.10
2023-05-20T16:51:04.692Z,24.77
2023-05-20T16:55:57.721Z,22.65
2023-05-20T17:00:51.308Z,28.88
2023-05-20T17:05:45.019Z,27.45
2023-05-20T17:10:38.986Z,25.25
2023-05-20T17:15:33.241Z,27.85
2023-05-20T17:20:26.889Z,25.33
2023-05-20T17:25:21.592Z,29.77
2023-05-20T17:30:15.663Z,27.35
2023-05-20T17:35:11.378Z,23.63
2023-05-20T17:40:08.665Z,23.27
2023-05-20T17:45:02.673Z,25.80
2023-05-20T17:49:57.025Z,29.85
2023-05-20T17:54:51.273Z,27.73
2023-05-20T17:59:46.152Z,40.55
2023-05-20T18:04:39.642Z,37.67
2023-05-20T18:09:33.824Z,29.27
2023-05-20T18:14:29.588Z,26.27
2023-05-20T18:19:23.371Z,26.15
2023-05-20T18:24:19.443Z,31.00
2023-05-20T18:29:13.338Z,34.80
2023-05-20T18:34:07.939Z,27.80
2023-05-20T18:39:01.620Z,32.70
2023-05-20T18:43:55.284Z,31.23
2023-05-20T18:48:49.154Z,33.05
2023-05-20T18:53:43.258Z,30.00
2023-05-20T18:58:37.238Z,28.27
2023-05-20T19:03:30.313Z,26.67
2023-05-20T19:08:23.727Z,24.02
2023-05-20T19:13:17.295Z,33.00
2023-05-20T19:18:12.033Z,27.13
2023-05-20T19:23:05.164Z,28.10
2023-05-20T19:27:58.081Z,25.58
2023-05-20T19:32:51.239Z,23.85
2023-05-20T19:37:45.547Z,26.33
2023-05-20T19:42:38.480Z,29.95
2023-05-20T19:47:31.814Z,33.53
2023-05-20T19:52:25.719Z,30.33
2023-05-20T19:57:18.889Z,35.08
2023-05-20T20:02:12.206Z,36.13
2023-05-20T20:07:05.366Z,31.13
2023-05-20T20:11:59.824Z,37.00
2023-05-20T20:16:53.167Z,35.35
2023-05-20T20:21:49.307Z,37.97
2023-05-20T20:26:44.356Z,40.67
2023-05-20T20:31:38.045Z,40.70
2023-05-20T20:36:32.357Z,41.33
2023-05-20T20:41:26.290Z,38.95
2023-05-20T20:46:19.925Z,38.15
2023-05-20T20:51:33.467Z,38.53
2023-05-20T20:56:27.943Z,36.70
2023-05-20T21:01:26.664Z,40.28
2023-05-20T21:11:13.920Z,39.42
2023-05-20T21:16:07.971Z,40.40
2023-05-20T21:21:01.242Z,38.95
2023-05-20T21:25:54.450Z,42.63
2023-05-20T21:30:47.995Z,37.72
2023-05-20T21:35:44.181Z,21.73
2023-05-20T21:40:38.243Z,30.95
2023-05-20T21:45:32.817Z,33.50
2023-05-20T21:50:26.442Z,31.50
2023-05-20T21:55:24.115Z,32.55
2023-05-20T22:00:19.684Z,33.77
2023-05-20T22:05:13.530Z,37.00
2023-05-20T22:10:11.245Z,40.03
2023-05-20T22:15:05.570Z,35.92
2023-05-20T22:20:00.935Z,35.58
2023-05-20T22:24:54.573Z,33.03
2023-05-20T22:29:48.844Z,36.15
2023-05-20T22:34:42.113Z,34.33
2023-05-20T22:39:36.508Z,33.67
2023-05-20T22:44:30.593Z,36.30
2023-05-20T22:49:28.653Z,40.40
2023-05-20T22:54:21.942Z,38.38
2023-05-20T22:59:14.902Z,34.75
2023-05-20T23:04:08.958Z,42.33
2023-05-20T23:09:02.684Z,37.75
2023-05-20T23:13:56.339Z,41.55
2023-05-20T23:18:50.286Z,42.75
2023-05-20T23:23:43.405Z,40.90
2023-05-20T23:28:37.728Z,40.80
2023-05-20T23:33:31.248Z,38.05
2023-05-20T23:38:25.104Z,38.33
2023-05-20T23:43:18.633Z,40.47
2023-05-20T23:48:13.881Z,36.08
2023-05-20T23:53:07.561Z,35.10
2023-05-20T23:58:01.048Z,35.65
